createdAt,value
2023-01-17T00:02:12.951Z,5.33
2023-01-17T00:05:28.503Z,5.46
2023-01-17T00:08:48.739Z,5.37
2023-01-17T00:11:47.057Z,5.83
2023-01-17T00:14:44.829Z,6.17
2023-01-17T00:17:42.261Z,6.35
2023-01-17T00:20:57.592Z,6.37
2023-01-17T00:24:12.616Z,6.61
2023-01-17T00:27:12.348Z,6.82
2023-01-17T00:30:08.655Z,6.76
2023-01-17T00:33:05.232Z,6.65
2023-01-17T00:36:01.574Z,6.59
2023-01-17T00:38:58.098Z,6.63
2023-01-17T00:41:54.384Z,6.57
2023-01-17T00:45:10.026Z,6.53
2023-01-17T00:48:25.615Z,6.45
2023-01-17T00:51:40.773Z,6.51
2023-01-17T00:54:56.384Z,6.66
2023-01-17T00:58:11.463Z,6.75
2023-01-17T01:01:27.105Z,6.75
2023-01-17T01:04:42.732Z,6.74
2023-01-17T01:07:57.765Z,6.69
2023-01-17T01:11:13.514Z,6.51
2023-01-17T01:14:28.763Z,6.28
2023-01-17T01:17:44.118Z,6.05
2023-01-17T01:20:59.502Z,5.80
2023-01-17T01:24:14.582Z,5.52
2023-01-17T01:27:29.795Z,5.29
2023-01-17T01:30:45.023Z,5.10
2023-01-17T01:33:42.784Z,5.04
2023-01-17T01:36:40.204Z,4.95
2023-01-17T01:39:37.905Z,4.87
2023-01-17T01:42:35.555Z,5.17
2023-01-17T01:45:33.487Z,6.46
2023-01-17T01:48:31.234Z,7.24
2023-01-17T01:51:28.665Z,8.42
2023-01-17T01:54:26.267Z,8.78
2023-01-17T01:57:23.696Z,8.93
2023-01-17T02:00:21.845Z,9.75
2023-01-17T02:03:19.649Z,10.27
2023-01-17T02:06:17.125Z,9.92
2023-01-17T02:09:14.857Z,8.70
2023-01-17T02:12:12.312Z,7.59
2023-01-17T02:15:10.001Z,6.80
2023-01-17T02:18:07.424Z,6.19
2023-01-17T02:21:05.056Z,5.67
2023-01-17T02:24:02.476Z,5.24
2023-01-17T02:27:00.243Z,4.85
2023-01-17T02:29:57.908Z,4.97
2023-01-17T02:32:55.399Z,5.76
2023-01-17T02:35:53.137Z,5.81
2023-01-17T02:38:50.815Z,5.71
2023-01-17T02:41:48.459Z,5.48
2023-01-17T02:44:45.885Z,5.33
2023-01-17T02:47:43.595Z,6.09
2023-01-17T02:50:41.366Z,7.82
2023-01-17T02:53:38.800Z,8.53
2023-01-17T02:56:36.511Z,8.60
2023-01-17T02:59:33.965Z,8.93
2023-01-17T03:02:31.615Z,9.71
2023-01-17T03:05:29.073Z,10.18
2023-01-17T03:08:26.853Z,10.13
2023-01-17T03:11:24.286Z,8.95
2023-01-17T03:14:21.914Z,7.80
2023-01-17T03:17:19.355Z,6.95
2023-01-17T03:20:17.062Z,6.27
2023-01-17T03:23:14.850Z,5.74
2023-01-17T03:26:12.526Z,5.29
2023-01-17T03:29:10.327Z,4.88
2023-01-17T03:32:07.770Z,5.05
2023-01-17T03:35:05.513Z,6.91
2023-01-17T03:38:02.952Z,7.87
2023-01-17T03:41:00.728Z,8.31
2023-01-17T03:43:58.167Z,8.77
2023-01-17T03:46:55.871Z,9.23
2023-01-17T03:49:53.326Z,9.52
2023-01-17T03:52:51.411Z,9.38
2023-01-17T03:55:48.861Z,8.37
2023-01-17T03:58:46.658Z,7.37
2023-01-17T04:01:44.518Z,6.64
2023-01-17T04:04:42.054Z,6.05
2023-01-17T04:07:40.653Z,5.54
2023-01-17T04:10:38.134Z,5.13
2023-01-17T04:13:36.080Z,4.77
2023-01-17T04:16:33.574Z,4.80
2023-01-17T04:19:31.221Z,6.06
2023-01-17T04:22:28.657Z,6.66
2023-01-17T04:25:26.955Z,7.12
2023-01-17T04:28:24.408Z,7.22
2023-01-17T04:31:22.056Z,7.14
2023-01-17T04:34:19.842Z,7.08
2023-01-17T04:37:17.303Z,7.20
2023-01-17T04:40:15.066Z,7.10
2023-01-17T04:43:12.509Z,7.53
2023-01-17T04:46:11.354Z,7.48
2023-01-17T04:49:08.864Z,6.99
2023-01-17T04:52:06.491Z,6.70
2023-01-17T04:55:03.966Z,6.58
2023-01-17T04:58:01.762Z,6.41
2023-01-17T05:00:59.276Z,6.97
2023-01-17T05:03:57.089Z,7.95
2023-01-17T05:06:55.095Z,8.03
2023-01-17T05:09:52.696Z,7.94
2023-01-17T05:12:50.136Z,7.85
2023-01-17T05:15:47.988Z,7.51
2023-01-17T05:18:45.730Z,7.19
2023-01-17T05:21:43.185Z,6.91
2023-01-17T05:24:40.874Z,6.71
2023-01-17T05:27:38.300Z,6.52
2023-01-17T05:30:36.076Z,6.59
2023-01-17T05:33:33.539Z,6.36
2023-01-17T05:36:31.251Z,5.92
2023-01-17T05:39:30.927Z,5.70
2023-01-17T05:42:28.808Z,5.56
2023-01-17T05:45:26.259Z,5.43
2023-01-17T05:48:24.036Z,5.39
2023-01-17T05:51:21.474Z,5.29
2023-01-17T05:54:19.235Z,5.09
2023-01-17T05:57:17.849Z,5.11
2023-01-17T06:00:18.088Z,5.92
2023-01-17T06:03:15.506Z,7.10
2023-01-17T06:06:13.289Z,7.26
2023-01-17T06:09:12.173Z,6.95
2023-01-17T06:12:09.600Z,6.80
2023-01-17T06:15:07.321Z,6.88
2023-01-17T06:18:05.023Z,6.57
2023-01-17T06:21:02.842Z,6.30
2023-01-17T06:24:01.840Z,6.34
2023-01-17T06:27:00.385Z,6.25
2023-01-17T06:29:57.841Z,6.12
2023-01-17T06:32:55.566Z,5.91
2023-01-17T06:35:53.343Z,5.68
2023-01-17T06:38:50.799Z,5.45
2023-01-17T06:41:48.492Z,5.21
2023-01-17T06:44:45.944Z,5.05
2023-01-17T06:47:43.656Z,5.27
2023-01-17T06:50:41.113Z,5.26
2023-01-17T06:53:39.106Z,5.05
2023-01-17T06:56:36.535Z,4.94
2023-01-17T06:59:34.615Z,4.91
2023-01-17T07:02:32.040Z,4.88
2023-01-17T07:05:29.724Z,4.85
2023-01-17T07:08:27.411Z,4.80
2023-01-17T07:11:24.911Z,4.68
2023-01-17T07:14:22.523Z,4.52
2023-01-17T07:17:19.963Z,4.49
2023-01-17T07:20:17.650Z,4.89
2023-01-17T07:23:15.084Z,4.98
2023-01-17T07:26:12.790Z,4.86
2023-01-17T07:29:10.227Z,4.85
2023-01-17T07:32:09.227Z,5.37
2023-01-17T07:35:06.668Z,5.60
2023-01-17T07:38:04.310Z,5.71
2023-01-17T07:41:01.829Z,5.91
2023-01-17T07:43:59.579Z,6.06
2023-01-17T07:46:57.097Z,6.21
2023-01-17T07:49:55.230Z,6.35
2023-01-17T07:52:53.004Z,6.56
2023-01-17T07:55:50.445Z,6.79
2023-01-17T07:58:49.052Z,6.90
2023-01-17T08:01:46.695Z,6.93
2023-01-17T08:04:44.504Z,6.88
2023-01-17T08:07:42.121Z,6.79
2023-01-17T08:10:39.765Z,6.75
2023-01-17T08:13:37.230Z,6.71
2023-01-17T08:16:34.699Z,6.68
2023-01-17T08:19:32.186Z,6.67
2023-01-17T08:22:29.952Z,6.66
2023-01-17T08:25:27.389Z,6.57
2023-01-17T08:28:25.166Z,6.45
2023-01-17T08:31:22.834Z,6.39
2023-01-17T08:34:20.304Z,6.39
2023-01-17T08:37:17.943Z,6.44
2023-01-17T08:40:17.224Z,6.68
2023-01-17T08:43:15.011Z,6.71
2023-01-17T08:46:12.485Z,6.54
2023-01-17T08:49:10.154Z,6.95
2023-01-17T08:52:07.829Z,7.33
2023-01-17T08:55:05.949Z,7.59
2023-01-17T08:58:03.685Z,7.68
2023-01-17T09:01:01.232Z,7.62
2023-01-17T09:03:59.025Z,7.53
2023-01-17T09:06:57.605Z,7.40
2023-01-17T09:09:55.255Z,7.30
2023-01-17T09:12:52.706Z,7.22
2023-01-17T09:15:50.487Z,7.40
2023-01-17T09:18:48.164Z,7.95
2023-01-17T09:21:45.588Z,8.30
2023-01-17T09:24:43.670Z,8.33
2023-01-17T09:27:41.083Z,8.12
2023-01-17T09:30:38.775Z,7.90
2023-01-17T09:33:36.295Z,7.53
2023-01-17T09:36:34.447Z,7.23
2023-01-17T09:39:32.206Z,7.08
2023-01-17T09:42:29.644Z,7.12
2023-01-17T09:45:27.358Z,7.15
2023-01-17T09:48:24.821Z,7.14
2023-01-17T09:51:22.515Z,7.09
2023-01-17T09:54:20.354Z,7.19
2023-01-17T09:57:17.791Z,7.18
2023-01-17T10:00:15.762Z,7.13
2023-01-17T10:03:13.556Z,7.27
2023-01-17T10:06:11.288Z,8.01
2023-01-17T10:09:08.814Z,8.34
2023-01-17T10:12:06.284Z,8.32
2023-01-17T10:15:07.288Z,8.37
2023-01-17T10:18:05.025Z,8.45
2023-01-17T10:21:03.731Z,8.75
2023-01-17T10:24:01.166Z,8.87
2023-01-17T10:26:58.966Z,8.86
2023-01-17T10:29:56.431Z,8.84
2023-01-17T10:32:55.150Z,8.84
2023-01-17T10:35:52.587Z,8.84
2023-01-17T10:38:50.316Z,8.84
2023-01-17T10:41:47.773Z,8.88
2023-01-17T10:44:45.580Z,8.90
2023-01-17T10:47:43.333Z,8.93
2023-01-17T10:50:40.754Z,8.96
2023-01-17T10:53:38.478Z,8.94
2023-01-17T10:56:35.914Z,8.86
2023-01-17T10:59:34.001Z,8.66
2023-01-17T11:02:31.877Z,8.47
2023-01-17T11:05:29.486Z,8.34
2023-01-17T11:08:27.310Z,8.19
2023-01-17T11:11:24.755Z,8.01
2023-01-17T11:14:22.418Z,7.87
2023-01-17T11:17:19.873Z,7.74
2023-01-17T11:20:20.355Z,7.66
2023-01-17T11:23:17.785Z,7.65
2023-01-17T11:26:15.524Z,7.68
2023-01-17T11:29:13.126Z,7.73
2023-01-17T11:32:10.589Z,7.82
2023-01-17T11:35:08.265Z,7.90
2023-01-17T11:38:05.767Z,7.95
2023-01-17T11:41:17.366Z,7.99
2023-01-17T11:44:15.061Z,8.17
2023-01-17T11:47:12.536Z,9.43
2023-01-17T11:50:10.363Z,10.19
2023-01-17T11:53:07.792Z,10.44
2023-01-17T11:56:05.608Z,10.44
2023-01-17T11:59:04.284Z,9.93
2023-01-17T12:02:02.156Z,9.46
2023-01-17T12:04:59.642Z,9.13
2023-01-17T12:07:57.371Z,8.91
2023-01-17T12:10:55.120Z,8.71
2023-01-17T12:14:01.783Z,8.53
2023-01-17T12:16:59.595Z,8.34
2023-01-17T12:20:00.989Z,8.21
2023-01-17T12:22:58.794Z,8.09
2023-01-17T12:25:56.243Z,8.05
2023-01-17T12:28:53.856Z,8.07
2023-01-17T12:31:51.288Z,8.07
2023-01-17T12:34:51.074Z,8.05
2023-01-17T12:38:00.288Z,8.02
2023-01-17T12:41:01.809Z,8.22
2023-01-17T12:43:59.548Z,8.47
2023-01-17T12:46:57.004Z,8.57
2023-01-17T12:49:54.780Z,8.62
2023-01-17T12:52:52.444Z,8.68
2023-01-17T12:55:49.950Z,8.75
2023-01-17T12:58:47.663Z,8.80
2023-01-17T13:01:45.283Z,8.79
2023-01-17T13:04:57.769Z,8.76
2023-01-17T13:07:56.329Z,8.75
2023-01-17T13:10:55.076Z,8.76
2023-01-17T13:13:53.824Z,8.78
2023-01-17T13:16:51.306Z,8.75
2023-01-17T13:19:49.033Z,8.67
2023-01-17T13:22:46.471Z,8.58
2023-01-17T13:25:44.090Z,8.68
2023-01-17T13:28:41.733Z,8.82
2023-01-17T13:31:39.241Z,8.94
2023-01-17T13:34:39.407Z,8.76
2023-01-17T13:37:36.875Z,8.53
2023-01-17T13:40:34.635Z,8.41
2023-01-17T13:43:32.316Z,8.48
2023-01-17T13:46:29.742Z,8.57
2023-01-17T13:49:27.526Z,8.53
2023-01-17T13:52:25.100Z,8.51
2023-01-17T13:55:22.865Z,8.43
2023-01-17T13:58:20.310Z,8.29
2023-01-17T14:01:18.046Z,8.16
2023-01-17T14:04:15.657Z,8.14
2023-01-17T14:07:13.526Z,7.98
2023-01-17T14:10:10.984Z,7.94
2023-01-17T14:13:08.851Z,7.93
2023-01-17T14:16:06.320Z,7.92
2023-01-17T14:19:04.593Z,7.98
2023-01-17T14:22:03.255Z,8.04
2023-01-17T14:25:00.950Z,8.08
2023-01-17T14:27:58.950Z,8.10
2023-01-17T14:30:56.519Z,8.08
2023-01-17T14:33:54.653Z,8.06
2023-01-17T14:36:52.081Z,8.05
2023-01-17T14:39:49.918Z,7.98
2023-01-17T14:42:47.378Z,7.91
2023-01-17T14:45:44.927Z,7.84
2023-01-17T14:48:42.878Z,7.76
2023-01-17T14:51:40.439Z,7.70
2023-01-17T14:54:38.196Z,7.65
2023-01-17T14:57:35.665Z,7.60
2023-01-17T15:00:35.376Z,7.52
2023-01-17T15:03:32.817Z,7.45
2023-01-17T15:06:30.712Z,7.29
2023-01-17T15:09:28.410Z,7.20
2023-01-17T15:12:25.939Z,7.11
2023-01-17T15:15:23.805Z,7.05
2023-01-17T15:18:21.237Z,6.98
2023-01-17T15:21:19.753Z,6.94
2023-01-17T15:24:17.323Z,7.32
2023-01-17T15:27:16.797Z,7.38
2023-01-17T15:30:14.496Z,7.26
2023-01-17T15:33:12.141Z,7.16
2023-01-17T15:36:09.801Z,7.19
2023-01-17T15:39:07.253Z,7.91
2023-01-17T15:42:05.055Z,8.23
2023-01-17T15:45:02.501Z,8.29
2023-01-17T15:48:00.710Z,8.27
2023-01-17T15:50:58.127Z,8.12
2023-01-17T15:53:55.839Z,7.98
2023-01-17T15:56:53.545Z,7.82
2023-01-17T15:59:51.116Z,7.55
2023-01-17T16:02:50.392Z,7.27
2023-01-17T16:05:47.863Z,7.05
2023-01-17T16:08:45.599Z,6.85
2023-01-17T16:11:44.049Z,6.71
2023-01-17T16:14:59.564Z,6.59
2023-01-17T16:17:59.128Z,6.52
2023-01-17T16:20:56.761Z,6.52
2023-01-17T16:23:54.464Z,6.45
2023-01-17T16:26:51.904Z,6.36
2023-01-17T16:29:49.725Z,6.34
2023-01-17T16:32:48.544Z,6.33
2023-01-17T16:35:46.622Z,6.31
2023-01-17T16:38:44.112Z,6.29
2023-01-17T16:41:41.917Z,6.23
2023-01-17T16:44:40.993Z,6.22
2023-01-17T16:47:38.419Z,6.59
2023-01-17T16:50:36.222Z,6.76
2023-01-17T16:53:33.651Z,6.58
2023-01-17T16:56:31.296Z,6.37
2023-01-17T16:59:39.661Z,6.33
2023-01-17T17:02:43.931Z,6.91
2023-01-17T17:05:41.381Z,7.93
2023-01-17T17:08:40.159Z,9.23
2023-01-17T17:11:38.184Z,9.74
2023-01-17T17:14:35.906Z,10.07
2023-01-17T17:17:33.959Z,10.29
2023-01-17T17:20:32.232Z,10.70
2023-01-17T17:23:30.991Z,11.18
2023-01-17T17:26:31.416Z,11.41
2023-01-17T17:29:29.139Z,11.75
2023-01-17T17:32:27.756Z,11.77
2023-01-17T17:35:25.344Z,11.72
2023-01-17T17:38:23.131Z,11.72
2023-01-17T17:41:21.032Z,12.07
2023-01-17T17:44:19.781Z,12.02
2023-01-17T17:47:18.010Z,11.87
2023-01-17T17:50:16.114Z,11.56
2023-01-17T17:53:13.618Z,11.67
2023-01-17T17:56:11.875Z,11.86
2023-01-17T17:59:10.360Z,11.89
2023-01-17T18:02:11.142Z,11.57
2023-01-17T18:05:09.552Z,11.43
2023-01-17T18:08:08.068Z,11.14
2023-01-17T18:11:06.337Z,10.97
2023-01-17T18:14:04.031Z,11.07
2023-01-17T18:17:02.312Z,10.86
2023-01-17T18:20:00.769Z,10.52
2023-01-17T18:22:58.778Z,10.36
2023-01-17T18:25:57.429Z,10.24
2023-01-17T18:28:55.426Z,10.11
2023-01-17T18:31:53.526Z,10.02
2023-01-17T18:34:51.739Z,10.02
2023-01-17T18:37:49.720Z,9.98
2023-01-17T18:40:47.457Z,9.95
2023-01-17T18:43:45.854Z,10.00
2023-01-17T18:46:44.061Z,10.10
2023-01-17T18:49:42.013Z,10.12
2023-01-17T18:52:40.845Z,10.07
2023-01-17T18:55:41.377Z,10.07
2023-01-17T18:58:40.167Z,10.52
2023-01-17T19:01:38.350Z,10.95
2023-01-17T19:04:39.134Z,10.59
2023-01-17T19:07:36.760Z,10.12
2023-01-17T19:10:35.383Z,9.88
2023-01-17T19:13:32.913Z,9.85
2023-01-17T19:16:31.435Z,9.84
2023-01-17T19:19:30.239Z,10.00
2023-01-17T19:22:28.650Z,10.05
2023-01-17T19:25:27.416Z,9.87
2023-01-17T19:28:26.435Z,10.15
2023-01-17T19:31:24.683Z,10.35
2023-01-17T19:34:23.165Z,10.23
2023-01-17T19:37:21.654Z,10.02
2023-01-17T19:40:21.922Z,10.22
2023-01-17T19:43:21.010Z,10.56
2023-01-17T19:46:20.273Z,10.32
2023-01-17T19:49:24.115Z,10.06
2023-01-17T19:52:25.633Z,9.85
2023-01-17T19:55:26.112Z,9.87
2023-01-17T19:58:24.566Z,9.85
2023-01-17T20:01:23.452Z,9.92
2023-01-17T20:04:22.254Z,9.72
2023-01-17T20:07:20.760Z,9.66
2023-01-17T20:10:19.134Z,9.60
2023-01-17T20:13:17.173Z,9.62
2023-01-17T20:16:16.778Z,10.01
2023-01-17T20:19:15.787Z,9.42
2023-01-17T20:22:14.588Z,8.90
2023-01-17T20:25:13.182Z,8.64
2023-01-17T20:28:12.788Z,8.43
2023-01-17T20:31:12.831Z,8.24
2023-01-17T20:34:12.030Z,8.44
2023-01-17T20:37:09.975Z,8.79
2023-01-17T20:40:09.689Z,9.09
2023-01-17T20:43:11.075Z,9.20
2023-01-17T20:46:09.633Z,9.37
2023-01-17T20:49:09.068Z,9.73
2023-01-17T20:52:06.638Z,9.91
2023-01-17T20:55:04.550Z,9.90
2023-01-17T20:58:03.062Z,9.98
2023-01-17T21:01:00.933Z,9.88
2023-01-17T21:03:58.785Z,9.64
2023-01-17T21:06:56.887Z,9.28
2023-01-17T21:09:55.193Z,9.06
2023-01-17T21:12:52.858Z,8.94
2023-01-17T21:15:50.638Z,8.59
2023-01-17T21:18:48.409Z,8.12
2023-01-17T21:21:46.476Z,7.80
2023-01-17T21:24:43.963Z,7.48
2023-01-17T21:27:41.875Z,7.10
2023-01-17T21:30:39.382Z,6.81
2023-01-17T21:33:37.144Z,6.62
2023-01-17T21:36:34.648Z,6.60
2023-01-17T21:39:32.650Z,6.38
2023-01-17T21:42:31.312Z,6.18
2023-01-17T21:45:32.254Z,6.14
2023-01-17T21:48:29.822Z,5.99
2023-01-17T21:51:47.523Z,5.79
2023-01-17T21:55:03.123Z,5.55
2023-01-17T21:58:29.638Z,5.42
2023-01-17T22:01:27.453Z,5.33
2023-01-17T22:04:25.720Z,5.29
2023-01-17T22:07:23.477Z,5.25
2023-01-17T22:10:21.246Z,5.23
2023-01-17T22:13:19.011Z,5.22
2023-01-17T22:16:16.471Z,5.27
2023-01-17T22:19:14.227Z,5.32
2023-01-17T22:22:12.723Z,5.41
2023-01-17T22:25:10.467Z,5.47
2023-01-17T22:28:08.263Z,5.49
2023-01-17T22:31:05.750Z,5.45
2023-01-17T22:34:03.689Z,5.32
2023-01-17T22:37:04.069Z,5.29
2023-01-17T22:40:05.081Z,5.23
2023-01-17T22:43:02.544Z,5.17
2023-01-17T22:46:00.407Z,5.13
2023-01-17T22:48:58.152Z,5.07
2023-01-17T22:51:56.827Z,4.99
2023-01-17T22:54:54.522Z,4.95
2023-01-17T22:57:54.018Z,4.93
2023-01-17T23:00:51.806Z,4.91
2023-01-17T23:03:49.594Z,4.84
2023-01-17T23:06:47.423Z,4.78
2023-01-17T23:09:45.189Z,4.73
2023-01-17T23:12:42.641Z,4.73
2023-01-17T23:16:09.974Z,4.71
2023-01-17T23:19:26.109Z,4.68
2023-01-17T23:22:23.573Z,4.66
2023-01-17T23:25:23.589Z,4.64
2023-01-17T23:28:21.766Z,4.63
2023-01-17T23:31:19.460Z,4.65
2023-01-17T23:34:17.514Z,4.65
2023-01-17T23:37:15.375Z,4.63
2023-01-17T23:40:13.140Z,4.61
2023-01-17T23:43:26.063Z,4.58
2023-01-17T23:46:24.378Z,4.55
2023-01-17T23:49:22.046Z,4.55
2023-01-17T23:52:19.576Z,4.54
2023-01-17T23:55:17.040Z,4.53
2023-01-17T23:58:14.797Z,4.53
